createdAt,value
2022-12-25T00:02:18.377Z,6.04
2022-12-25T00:04:45.052Z,6.27
2022-12-25T00:07:12.542Z,6.08
2022-12-25T00:09:39.126Z,6.12
2022-12-25T00:12:05.980Z,6.23
2022-12-25T00:14:32.573Z,6.32
2022-12-25T00:16:59.204Z,6.22
2022-12-25T00:19:25.827Z,6.26
2022-12-25T00:21:52.391Z,6.11
2022-12-25T00:24:18.965Z,6.23
2022-12-25T00:26:45.565Z,6.21
2022-12-25T00:29:13.255Z,5.99
2022-12-25T00:31:40.583Z,6.19
2022-12-25T00:34:07.315Z,5.98
2022-12-25T00:36:41.188Z,6.23
2022-12-25T00:39:08.483Z,6.25
2022-12-25T00:41:53.681Z,6.01
2022-12-25T00:44:20.303Z,6.09
2022-12-25T00:46:46.973Z,6.26
2022-12-25T00:49:13.682Z,6.38
2022-12-25T00:51:40.455Z,6.40
2022-12-25T00:54:07.552Z,6.32
2022-12-25T00:56:34.310Z,6.47
2022-12-25T00:59:00.974Z,6.50
2022-12-25T01:01:27.686Z,6.50
2022-12-25T01:03:55.363Z,6.48
2022-12-25T01:06:22.035Z,6.58
2022-12-25T01:09:07.240Z,6.51
2022-12-25T01:11:33.909Z,6.37
2022-12-25T01:14:00.607Z,6.22
2022-12-25T01:16:27.738Z,5.95
2022-12-25T01:18:54.686Z,5.84
2022-12-25T01:21:22.291Z,5.45
2022-12-25T01:23:50.586Z,5.50
2022-12-25T01:26:18.361Z,5.32
2022-12-25T01:28:45.005Z,4.99
2022-12-25T01:31:15.595Z,4.77
2022-12-25T01:33:44.244Z,4.52
2022-12-25T01:36:19.413Z,4.78
2022-12-25T01:38:46.445Z,4.63
2022-12-25T01:41:14.672Z,4.57
2022-12-25T01:44:02.408Z,4.73
2022-12-25T01:46:30.428Z,4.55
2022-12-25T01:48:59.184Z,4.82
2022-12-25T01:51:54.597Z,4.81
2022-12-25T01:54:29.431Z,4.63
2022-12-25T01:56:59.883Z,4.87
2022-12-25T01:59:27.953Z,4.85
2022-12-25T02:01:54.688Z,4.94
2022-12-25T02:04:38.945Z,4.90
2022-12-25T02:07:17.831Z,4.90
2022-12-25T02:09:45.167Z,4.89
2022-12-25T02:12:34.085Z,5.02
2022-12-25T02:15:06.157Z,4.85
2022-12-25T02:18:02.205Z,4.69
2022-12-25T02:20:31.936Z,4.75
2022-12-25T02:23:35.971Z,4.83
2022-12-25T02:26:05.332Z,4.83
2022-12-25T02:28:46.264Z,4.86
2022-12-25T02:31:40.054Z,4.98
2022-12-25T02:34:22.712Z,4.90
2022-12-25T02:36:57.592Z,5.14
2022-12-25T02:39:46.808Z,5.22
2022-12-25T02:42:46.044Z,4.83
2022-12-25T02:45:34.676Z,5.00
2022-12-25T02:48:21.007Z,5.15
2022-12-25T02:51:06.874Z,5.22
2022-12-25T02:53:53.614Z,5.26
2022-12-25T02:56:41.489Z,5.45
2022-12-25T02:59:26.801Z,5.46
2022-12-25T03:02:13.396Z,5.43
2022-12-25T03:05:00.737Z,5.29
2022-12-25T03:07:30.113Z,5.38
2022-12-25T03:10:21.671Z,5.48
2022-12-25T03:12:56.028Z,5.38
2022-12-25T03:15:41.954Z,5.46
2022-12-25T03:18:14.511Z,5.47
2022-12-25T03:21:00.191Z,5.38
2022-12-25T03:23:51.165Z,5.19
2022-12-25T03:26:36.961Z,5.27
2022-12-25T03:29:04.024Z,5.23
2022-12-25T03:31:30.566Z,5.35
2022-12-25T03:34:33.871Z,5.43
2022-12-25T03:37:36.210Z,5.38
2022-12-25T03:40:53.499Z,5.48
2022-12-25T03:43:38.387Z,5.47
2022-12-25T03:46:29.005Z,5.52
2022-12-25T03:49:23.756Z,5.57
2022-12-25T03:52:11.293Z,5.71
2022-12-25T03:54:59.819Z,5.72
2022-12-25T03:57:45.201Z,5.79
2022-12-25T04:00:30.822Z,5.90
2022-12-25T04:03:16.107Z,5.96
2022-12-25T04:06:01.000Z,6.00
2022-12-25T04:09:03.193Z,5.97
2022-12-25T04:11:48.540Z,5.96
2022-12-25T04:14:33.968Z,5.98
2022-12-25T04:17:39.002Z,5.87
2022-12-25T04:20:24.844Z,5.89
2022-12-25T04:23:10.211Z,5.90
2022-12-25T04:25:55.163Z,5.84
2022-12-25T04:28:39.967Z,5.83
2022-12-25T04:31:25.516Z,5.61
2022-12-25T04:34:10.838Z,5.66
2022-12-25T04:36:37.544Z,5.45
2022-12-25T04:39:04.214Z,5.26
2022-12-25T04:41:30.934Z,5.26
2022-12-25T04:43:57.762Z,5.22
2022-12-25T04:46:24.441Z,5.14
2022-12-25T04:48:51.084Z,4.95
2022-12-25T04:51:20.592Z,4.89
2022-12-25T04:53:48.819Z,4.57
2022-12-25T04:56:16.537Z,4.99
2022-12-25T04:58:44.539Z,5.03
2022-12-25T05:01:12.571Z,4.96
2022-12-25T05:03:39.317Z,4.97
2022-12-25T05:06:07.324Z,4.95
2022-12-25T05:08:35.410Z,4.77
2022-12-25T05:11:06.207Z,4.72
2022-12-25T05:13:32.857Z,4.70
2022-12-25T05:15:59.628Z,4.57
2022-12-25T05:18:26.384Z,4.56
2022-12-25T05:20:54.640Z,4.43
2022-12-25T05:23:22.362Z,4.28
2022-12-25T05:25:49.094Z,4.48
2022-12-25T05:28:15.947Z,4.60
2022-12-25T05:30:42.595Z,4.35
2022-12-25T05:33:09.240Z,4.72
2022-12-25T05:35:38.088Z,4.70
2022-12-25T05:38:06.012Z,4.61
2022-12-25T05:40:33.245Z,4.80
2022-12-25T05:42:59.928Z,4.79
2022-12-25T05:45:26.664Z,4.88
2022-12-25T05:47:53.469Z,4.84
2022-12-25T05:50:20.098Z,4.90
2022-12-25T05:52:46.821Z,4.94
2022-12-25T05:55:13.442Z,4.94
2022-12-25T05:57:41.230Z,4.96
2022-12-25T06:00:08.755Z,4.75
2022-12-25T06:02:37.263Z,4.92
2022-12-25T06:05:05.103Z,4.96
2022-12-25T06:07:31.797Z,4.90
2022-12-25T06:09:58.507Z,4.94
2022-12-25T06:12:25.136Z,4.72
2022-12-25T06:14:51.729Z,4.89
2022-12-25T06:17:18.395Z,4.86
2022-12-25T06:19:45.065Z,4.78
2022-12-25T06:22:11.750Z,4.67
2022-12-25T06:24:38.672Z,4.65
2022-12-25T06:27:05.306Z,4.67
2022-12-25T06:29:31.880Z,4.63
2022-12-25T06:31:59.099Z,4.61
2022-12-25T06:34:25.974Z,4.39
2022-12-25T06:36:53.177Z,4.47
2022-12-25T06:39:21.471Z,4.51
2022-12-25T06:41:48.606Z,4.45
2022-12-25T06:44:15.227Z,4.40
2022-12-25T06:46:41.836Z,4.05
2022-12-25T06:49:10.127Z,4.07
2022-12-25T06:51:36.709Z,4.48
2022-12-25T06:54:04.110Z,4.61
2022-12-25T06:56:32.121Z,4.75
2022-12-25T06:59:08.298Z,4.74
2022-12-25T07:01:48.925Z,4.73
2022-12-25T07:04:24.007Z,4.88
2022-12-25T07:06:50.712Z,5.07
2022-12-25T07:09:17.349Z,5.16
2022-12-25T07:11:43.997Z,5.03
2022-12-25T07:14:23.862Z,5.44
2022-12-25T07:16:51.027Z,5.43
2022-12-25T07:19:17.763Z,5.52
2022-12-25T07:21:44.347Z,5.34
2022-12-25T07:24:10.939Z,5.76
2022-12-25T07:26:37.575Z,5.62
2022-12-25T07:29:04.179Z,5.88
2022-12-25T07:31:30.777Z,6.02
2022-12-25T07:33:57.398Z,6.17
2022-12-25T07:36:24.112Z,6.08
2022-12-25T07:38:51.580Z,6.43
2022-12-25T07:41:18.208Z,6.59
2022-12-25T07:43:44.850Z,6.88
2022-12-25T07:46:11.856Z,7.07
2022-12-25T07:48:38.676Z,7.05
2022-12-25T07:51:07.845Z,7.17
2022-12-25T07:53:35.474Z,7.26
2022-12-25T07:56:07.766Z,7.60
2022-12-25T07:58:34.695Z,7.77
2022-12-25T08:01:07.747Z,7.84
2022-12-25T08:03:35.678Z,7.81
2022-12-25T08:06:04.959Z,8.16
2022-12-25T08:08:31.607Z,8.25
2022-12-25T08:10:58.353Z,8.44
2022-12-25T08:13:25.115Z,8.51
2022-12-25T08:15:58.561Z,8.82
2022-12-25T08:18:29.982Z,8.63
2022-12-25T08:20:57.241Z,9.10
2022-12-25T08:23:23.804Z,9.08
2022-12-25T08:25:50.384Z,9.20
2022-12-25T08:28:16.936Z,9.31
2022-12-25T08:30:43.678Z,9.62
2022-12-25T08:33:10.319Z,9.68
2022-12-25T08:35:37.216Z,9.91
2022-12-25T08:38:03.829Z,10.10
2022-12-25T08:40:30.386Z,10.17
2022-12-25T08:42:57.307Z,10.33
2022-12-25T08:45:27.403Z,10.38
2022-12-25T08:47:57.947Z,10.40
2022-12-25T08:50:24.992Z,10.46
2022-12-25T08:52:51.777Z,10.60
2022-12-25T08:55:18.453Z,10.66
2022-12-25T08:57:45.064Z,10.65
2022-12-25T09:00:12.115Z,10.87
2022-12-25T09:02:38.913Z,11.16
2022-12-25T09:05:06.204Z,11.13
2022-12-25T09:07:32.776Z,11.35
2022-12-25T09:09:59.383Z,11.47
2022-12-25T09:12:26.026Z,11.34
2022-12-25T09:14:52.684Z,11.20
2022-12-25T09:17:22.071Z,11.48
2022-12-25T09:19:48.668Z,11.66
2022-12-25T09:22:15.318Z,11.69
2022-12-25T09:24:43.692Z,11.59
2022-12-25T09:27:10.299Z,11.64
2022-12-25T09:29:36.926Z,12.03
2022-12-25T09:32:03.682Z,12.08
2022-12-25T09:34:30.342Z,12.32
2022-12-25T09:36:57.087Z,12.44
2022-12-25T09:39:24.823Z,12.49
2022-12-25T09:42:04.434Z,12.24
2022-12-25T09:44:55.417Z,12.73
2022-12-25T09:47:37.085Z,13.12
2022-12-25T09:50:12.755Z,13.13
2022-12-25T09:52:48.622Z,13.29
2022-12-25T09:55:24.374Z,13.23
2022-12-25T09:58:00.597Z,13.60
2022-12-25T10:00:40.720Z,13.15
2022-12-25T10:03:13.563Z,13.67
2022-12-25T10:05:55.451Z,13.77
2022-12-25T10:08:27.892Z,13.82
2022-12-25T10:11:00.516Z,13.95
2022-12-25T10:13:45.463Z,13.89
2022-12-25T10:16:21.085Z,14.03
2022-12-25T10:18:47.727Z,14.01
2022-12-25T10:21:18.335Z,13.88
2022-12-25T10:23:53.643Z,14.05
2022-12-25T10:26:22.686Z,14.04
2022-12-25T10:29:04.580Z,13.96
2022-12-25T10:31:36.186Z,14.23
2022-12-25T10:34:04.536Z,14.29
2022-12-25T10:36:31.936Z,14.24
2022-12-25T10:38:58.562Z,14.24
2022-12-25T10:42:04.241Z,14.51
2022-12-25T10:44:32.381Z,14.55
2022-12-25T10:46:59.804Z,14.63
2022-12-25T10:49:46.768Z,14.50
2022-12-25T10:52:21.258Z,14.22
2022-12-25T10:54:48.006Z,14.52
2022-12-25T10:57:18.008Z,14.78
2022-12-25T10:59:48.839Z,14.80
2022-12-25T11:02:36.304Z,14.67
2022-12-25T11:05:29.612Z,14.75
2022-12-25T11:07:57.077Z,14.95
2022-12-25T11:10:32.876Z,15.11
2022-12-25T11:13:00.958Z,14.93
2022-12-25T11:15:43.353Z,15.02
2022-12-25T11:18:49.280Z,15.09
2022-12-25T11:21:26.269Z,14.60
2022-12-25T11:24:00.735Z,15.17
2022-12-25T11:26:30.281Z,15.18
2022-12-25T11:28:58.204Z,15.27
2022-12-25T11:31:40.781Z,15.13
2022-12-25T11:34:17.707Z,15.15
2022-12-25T11:36:47.195Z,15.15
2022-12-25T11:39:29.458Z,15.21
2022-12-25T11:42:26.483Z,15.20
2022-12-25T11:45:08.845Z,15.25
2022-12-25T11:48:26.293Z,15.41
2022-12-25T11:50:59.302Z,15.42
2022-12-25T11:53:35.063Z,15.20
2022-12-25T11:56:06.738Z,15.46
2022-12-25T11:58:39.142Z,15.49
2022-12-25T12:01:17.349Z,15.55
2022-12-25T12:03:44.969Z,15.43
2022-12-25T12:06:47.874Z,15.39
2022-12-25T12:09:44.185Z,15.39
2022-12-25T12:12:16.602Z,15.27
2022-12-25T12:15:08.473Z,15.41
2022-12-25T12:17:35.335Z,15.28
2022-12-25T12:20:28.746Z,15.16
2022-12-25T12:22:56.180Z,15.42
2022-12-25T12:25:23.051Z,15.43
2022-12-25T12:28:21.738Z,15.35
2022-12-25T12:31:06.999Z,15.36
2022-12-25T12:33:39.486Z,15.14
2022-12-25T12:36:09.950Z,15.13
2022-12-25T12:38:37.200Z,15.17
2022-12-25T12:41:07.161Z,14.94
2022-12-25T12:43:44.947Z,15.19
2022-12-25T12:46:24.493Z,15.23
2022-12-25T12:49:21.210Z,15.23
2022-12-25T12:51:49.287Z,15.22
2022-12-25T12:54:26.153Z,15.09
2022-12-25T12:56:55.816Z,15.27
2022-12-25T12:59:23.500Z,15.22
2022-12-25T13:02:18.862Z,15.21
2022-12-25T13:05:05.929Z,15.17
2022-12-25T13:07:53.799Z,14.95
2022-12-25T13:10:36.612Z,15.12
2022-12-25T13:13:12.731Z,14.92
2022-12-25T13:15:39.571Z,15.05
2022-12-25T13:18:10.880Z,14.93
2022-12-25T13:20:47.131Z,14.59
2022-12-25T13:23:35.122Z,14.69
2022-12-25T13:26:14.863Z,14.61
2022-12-25T13:28:41.719Z,14.92
2022-12-25T13:31:18.839Z,14.77
2022-12-25T13:33:58.078Z,14.84
2022-12-25T13:36:26.841Z,14.94
2022-12-25T13:38:57.951Z,14.74
2022-12-25T13:41:46.232Z,14.71
2022-12-25T13:44:20.801Z,14.56
2022-12-25T13:46:48.217Z,14.70
2022-12-25T13:49:20.613Z,14.72
2022-12-25T13:51:48.684Z,14.66
2022-12-25T13:54:17.409Z,14.58
2022-12-25T13:56:50.425Z,14.52
2022-12-25T13:59:21.269Z,14.22
2022-12-25T14:01:49.637Z,14.43
2022-12-25T14:04:20.138Z,14.37
2022-12-25T14:06:48.086Z,14.26
2022-12-25T14:09:15.913Z,14.30
2022-12-25T14:11:48.958Z,14.37
2022-12-25T14:14:22.083Z,14.36
2022-12-25T14:16:51.646Z,14.49
2022-12-25T14:19:33.464Z,14.42
2022-12-25T14:22:17.209Z,14.44
2022-12-25T14:24:44.074Z,14.39
2022-12-25T14:27:32.528Z,14.32
2022-12-25T14:30:00.725Z,14.24
2022-12-25T14:32:30.072Z,14.20
2022-12-25T14:34:59.627Z,13.91
2022-12-25T14:37:30.900Z,13.90
2022-12-25T14:40:05.144Z,13.75
2022-12-25T14:42:36.045Z,13.61
2022-12-25T14:45:25.573Z,13.49
2022-12-25T14:47:53.478Z,13.32
2022-12-25T14:50:30.724Z,13.22
2022-12-25T14:52:59.022Z,12.92
2022-12-25T14:55:28.694Z,12.66
2022-12-25T14:58:04.984Z,12.20
2022-12-25T15:00:39.834Z,12.43
2022-12-25T15:03:27.111Z,12.48
2022-12-25T15:06:19.524Z,12.51
2022-12-25T15:09:16.697Z,12.45
2022-12-25T15:11:43.595Z,12.40
2022-12-25T15:14:10.233Z,12.32
2022-12-25T15:16:50.929Z,12.23
2022-12-25T15:19:27.261Z,11.97
2022-12-25T15:21:54.556Z,12.00
2022-12-25T15:24:22.338Z,11.86
2022-12-25T15:26:48.978Z,11.81
2022-12-25T15:29:38.172Z,11.75
2022-12-25T15:32:21.318Z,11.64
2022-12-25T15:34:50.145Z,11.67
2022-12-25T15:37:18.998Z,11.63
2022-12-25T15:39:46.414Z,11.63
2022-12-25T15:42:15.388Z,11.60
2022-12-25T15:44:45.278Z,11.53
2022-12-25T15:47:14.682Z,11.48
2022-12-25T15:49:44.342Z,11.45
2022-12-25T15:52:14.348Z,11.22
2022-12-25T15:54:41.062Z,11.05
2022-12-25T15:57:19.613Z,10.96
2022-12-25T15:59:46.887Z,10.50
2022-12-25T16:02:17.689Z,10.10
2022-12-25T16:04:44.819Z,10.45
2022-12-25T16:07:19.748Z,10.33
2022-12-25T16:09:46.802Z,10.51
2022-12-25T16:12:13.503Z,10.45
2022-12-25T16:14:40.214Z,10.35
2022-12-25T16:17:07.445Z,10.43
2022-12-25T16:19:34.330Z,10.20
2022-12-25T16:22:01.000Z,10.24
2022-12-25T16:24:28.645Z,10.29
2022-12-25T16:26:55.277Z,10.00
2022-12-25T16:29:21.884Z,9.91
2022-12-25T16:31:48.565Z,9.92
2022-12-25T16:34:15.293Z,9.88
2022-12-25T16:36:41.896Z,9.84
2022-12-25T16:39:08.569Z,9.59
2022-12-25T16:41:35.205Z,9.66
2022-12-25T16:44:09.489Z,9.68
2022-12-25T16:46:37.624Z,9.67
2022-12-25T16:49:04.379Z,9.71
2022-12-25T16:51:31.419Z,9.55
2022-12-25T16:53:58.561Z,9.70
2022-12-25T16:56:27.108Z,9.62
2022-12-25T16:58:55.007Z,9.76
2022-12-25T17:01:23.071Z,9.76
2022-12-25T17:03:50.127Z,9.79
2022-12-25T17:06:28.309Z,9.52
2022-12-25T17:08:58.868Z,9.05
2022-12-25T17:11:29.857Z,8.78
2022-12-25T17:13:58.786Z,8.82
2022-12-25T17:16:28.170Z,8.95
2022-12-25T17:19:01.450Z,8.52
2022-12-25T17:21:28.995Z,8.23
2022-12-25T17:24:01.706Z,8.50
2022-12-25T17:26:30.862Z,8.41
2022-12-25T17:28:57.552Z,8.29
2022-12-25T17:31:24.508Z,8.18
2022-12-25T17:33:51.181Z,8.27
2022-12-25T17:36:20.190Z,8.37
2022-12-25T17:38:47.731Z,8.45
2022-12-25T17:41:16.654Z,8.37
2022-12-25T17:43:45.708Z,8.08
2022-12-25T17:46:23.810Z,8.36
2022-12-25T17:48:51.884Z,8.28
2022-12-25T17:51:21.920Z,8.32
2022-12-25T17:53:52.446Z,8.23
2022-12-25T17:56:20.773Z,8.25
2022-12-25T17:58:58.507Z,8.35
2022-12-25T18:01:27.014Z,7.93
2022-12-25T18:03:54.577Z,8.28
2022-12-25T18:06:24.443Z,8.07
2022-12-25T18:08:51.148Z,8.07
2022-12-25T18:11:20.640Z,7.84
2022-12-25T18:13:51.221Z,7.84
2022-12-25T18:16:19.570Z,7.94
2022-12-25T18:18:51.719Z,7.91
2022-12-25T18:21:20.547Z,7.90
2022-12-25T18:23:47.844Z,7.87
2022-12-25T18:26:14.942Z,7.62
2022-12-25T18:28:42.668Z,7.55
2022-12-25T18:31:21.895Z,7.71
2022-12-25T18:33:49.754Z,7.67
2022-12-25T18:36:20.326Z,7.58
2022-12-25T18:38:48.331Z,7.31
2022-12-25T18:41:15.275Z,7.36
2022-12-25T18:43:54.283Z,7.31
2022-12-25T18:46:26.702Z,7.23
2022-12-25T18:48:55.091Z,7.14
2022-12-25T18:51:22.105Z,7.14
2022-12-25T18:53:48.878Z,7.13
2022-12-25T18:56:17.602Z,7.02
2022-12-25T18:58:44.719Z,7.09
2022-12-25T19:01:11.646Z,7.05
2022-12-25T19:03:38.373Z,6.64
2022-12-25T19:06:05.100Z,6.58
2022-12-25T19:08:31.807Z,6.72
2022-12-25T19:10:58.421Z,6.15
2022-12-25T19:13:25.080Z,5.85
2022-12-25T19:15:52.546Z,5.69
2022-12-25T19:18:19.193Z,5.99
2022-12-25T19:20:45.797Z,5.91
2022-12-25T19:23:12.518Z,5.83
2022-12-25T19:25:40.482Z,6.07
2022-12-25T19:28:07.053Z,5.93
2022-12-25T19:30:33.858Z,6.03
2022-12-25T19:33:00.668Z,6.14
2022-12-25T19:35:27.332Z,5.99
2022-12-25T19:37:53.982Z,6.04
2022-12-25T19:40:20.704Z,5.73
2022-12-25T19:42:47.297Z,5.94
2022-12-25T19:45:13.952Z,6.02
2022-12-25T19:47:44.257Z,5.74
2022-12-25T19:50:11.057Z,5.86
2022-12-25T19:52:37.726Z,5.69
2022-12-25T19:55:04.661Z,5.91
2022-12-25T19:57:31.296Z,5.88
2022-12-25T19:59:59.005Z,5.94
2022-12-25T20:02:25.913Z,5.74
2022-12-25T20:04:52.660Z,5.70
2022-12-25T20:07:19.373Z,5.70
2022-12-25T20:09:46.094Z,5.65
2022-12-25T20:12:15.018Z,5.63
2022-12-25T20:14:41.765Z,5.52
2022-12-25T20:17:13.689Z,5.61
2022-12-25T20:19:42.286Z,5.51
2022-12-25T20:22:08.899Z,5.69
2022-12-25T20:24:35.993Z,5.69
2022-12-25T20:27:03.208Z,5.62
2022-12-25T20:29:30.113Z,5.82
2022-12-25T20:31:56.795Z,5.81
2022-12-25T20:34:23.501Z,5.83
2022-12-25T20:36:50.226Z,5.71
2022-12-25T20:39:17.038Z,5.92
2022-12-25T20:41:43.715Z,5.87
2022-12-25T20:44:15.601Z,5.78
2022-12-25T20:46:42.751Z,5.62
2022-12-25T20:49:09.481Z,5.59
2022-12-25T20:51:36.154Z,5.57
2022-12-25T20:54:07.628Z,5.53
2022-12-25T20:56:35.302Z,5.62
2022-12-25T20:59:02.264Z,5.64
2022-12-25T21:01:30.656Z,5.76
2022-12-25T21:03:58.587Z,5.42
2022-12-25T21:06:25.260Z,5.85
2022-12-25T21:08:51.930Z,5.90
2022-12-25T21:11:18.629Z,5.86
2022-12-25T21:13:46.299Z,5.88
2022-12-25T21:16:19.062Z,5.93
2022-12-25T21:18:46.847Z,5.84
2022-12-25T21:21:14.015Z,5.53
2022-12-25T21:23:41.263Z,5.25
2022-12-25T21:26:19.096Z,5.22
2022-12-25T21:28:47.681Z,5.29
2022-12-25T21:31:14.624Z,4.97
2022-12-25T21:33:53.785Z,4.72
2022-12-25T21:36:27.295Z,4.72
2022-12-25T21:39:06.470Z,4.88
2022-12-25T21:41:35.028Z,4.83
2022-12-25T21:44:02.011Z,4.92
2022-12-25T21:46:29.429Z,4.77
2022-12-25T21:48:57.045Z,4.90
2022-12-25T21:51:45.339Z,4.96
2022-12-25T21:54:13.411Z,4.94
2022-12-25T21:56:44.616Z,4.95
2022-12-25T21:59:15.853Z,4.88
2022-12-25T22:01:42.943Z,4.90
2022-12-25T22:04:10.059Z,4.88
2022-12-25T22:06:55.290Z,4.69
2022-12-25T22:09:22.728Z,4.63
2022-12-25T22:12:07.933Z,4.80
2022-12-25T22:14:57.357Z,4.56
2022-12-25T22:17:45.658Z,4.52
2022-12-25T22:20:16.188Z,4.19
2022-12-25T22:22:43.484Z,3.85
2022-12-25T22:25:11.015Z,3.53
2022-12-25T22:27:39.194Z,3.43
2022-12-25T22:30:08.042Z,3.33
2022-12-25T22:32:34.923Z,3.17
2022-12-25T22:35:01.803Z,3.25
2022-12-25T22:37:28.629Z,3.46
2022-12-25T22:39:55.407Z,3.59
2022-12-25T22:42:22.399Z,3.74
2022-12-25T22:44:49.283Z,3.73
2022-12-25T22:47:15.901Z,3.44
2022-12-25T22:49:42.479Z,3.84
2022-12-25T22:52:09.950Z,3.88
2022-12-25T22:54:36.686Z,3.85
2022-12-25T22:57:04.100Z,3.37
2022-12-25T22:59:32.845Z,3.26
2022-12-25T23:02:00.872Z,2.98
2022-12-25T23:04:28.566Z,2.85
2022-12-25T23:06:55.624Z,2.68
2022-12-25T23:09:27.696Z,2.64
2022-12-25T23:11:56.485Z,2.63
2022-12-25T23:14:39.910Z,2.94
2022-12-25T23:17:32.683Z,2.93
2022-12-25T23:20:19.125Z,3.17
2022-12-25T23:23:04.875Z,3.15
2022-12-25T23:25:49.993Z,3.03
2022-12-25T23:28:36.651Z,2.64
2022-12-25T23:31:03.492Z,2.90
2022-12-25T23:33:30.507Z,2.68
2022-12-25T23:35:57.152Z,2.82
2022-12-25T23:38:23.735Z,3.12
2022-12-25T23:40:50.338Z,3.09
2022-12-25T23:43:17.073Z,2.87
2022-12-25T23:45:43.701Z,3.13
2022-12-25T23:48:10.318Z,3.27
2022-12-25T23:50:37.178Z,2.73
2022-12-25T23:53:03.816Z,2.93
2022-12-25T23:55:30.475Z,2.91
2022-12-25T23:57:57.122Z,2.76
